sensor_id;sensor_type;location;lat;lon;timestamp;temperature;humidity
16287;DHT22;8251;53.568;10.018;2023-09-30T00:01:27;18.50;86.40
16287;DHT22;8251;53.568;10.018;2023-09-30T00:03:53;18.50;86.60
16287;DHT22;8251;53.568;10.018;2023-09-30T00:06:21;18.50;86.60
16287;DHT22;8251;53.568;10.018;2023-09-30T00:08:50;18.50;86.60
16287;DHT22;8251;53.568;10.018;2023-09-30T00:11:19;18.50;86.60
16287;DHT22;8251;53.568;10.018;2023-09-30T00:13:47;18.50;86.40
16287;DHT22;8251;53.568;10.018;2023-09-30T00:16:19;18.50;86.40
16287;DHT22;8251;53.568;10.018;2023-09-30T00:18:49;18.40;86.40
16287;DHT22;8251;53.568;10.018;2023-09-30T00:21:16;18.40;86.10
16287;DHT22;8251;53.568;10.018;2023-09-30T00:23:43;18.30;86.40
16287;DHT22;8251;53.568;10.018;2023-09-30T00:26:11;18.30;86.60
16287;DHT22;8251;53.568;10.018;2023-09-30T00:28:39;18.20;86.60
16287;DHT22;8251;53.568;10.018;2023-09-30T00:31:09;18.20;86.70
16287;DHT22;8251;53.568;10.018;2023-09-30T00:33:39;18.20;86.80
16287;DHT22;8251;53.568;10.018;2023-09-30T00:36:09;18.20;87.00
16287;DHT22;8251;53.568;10.018;2023-09-30T00:38:40;18.20;86.90
16287;DHT22;8251;53.568;10.018;2023-09-30T00:41:07;18.20;87.50
16287;DHT22;8251;53.568;10.018;2023-09-30T00:43:35;18.10;86.70
16287;DHT22;8251;53.568;10.018;2023-09-30T00:46:06;18.10;86.70
16287;DHT22;8251;53.568;10.018;2023-09-30T00:48:40;18.20;86.60
16287;DHT22;8251;53.568;10.018;2023-09-30T00:51:10;18.10;86.50
16287;DHT22;8251;53.568;10.018;2023-09-30T00:53:37;18.10;86.60
16287;DHT22;8251;53.568;10.018;2023-09-30T00:56:05;18.00;86.50
16287;DHT22;8251;53.568;10.018;2023-09-30T00:58:35;18.00;86.60
16287;DHT22;8251;53.568;10.018;2023-09-30T01:01:02;18.10;86.70
16287;DHT22;8251;53.568;10.018;2023-09-30T01:03:29;18.00;86.70
16287;DHT22;8251;53.568;10.018;2023-09-30T01:05:56;18.00;86.60
16287;DHT22;8251;53.568;10.018;2023-09-30T01:08:23;18.00;86.60
16287;DHT22;8251;53.568;10.018;2023-09-30T01:11:01;18.00;86.70
16287;DHT22;8251;53.568;10.018;2023-09-30T01:13:32;18.00;86.60
16287;DHT22;8251;53.568;10.018;2023-09-30T01:16:04;18.00;86.50
16287;DHT22;8251;53.568;10.018;2023-09-30T01:18:31;18.00;86.60
16287;DHT22;8251;53.568;10.018;2023-09-30T01:20:59;18.00;86.60
16287;DHT22;8251;53.568;10.018;2023-09-30T01:23:30;18.00;86.60
16287;DHT22;8251;53.568;10.018;2023-09-30T01:25:57;18.00;86.60
16287;DHT22;8251;53.568;10.018;2023-09-30T01:28:24;18.00;86.60
16287;DHT22;8251;53.568;10.018;2023-09-30T01:30:52;18.00;86.60
16287;DHT22;8251;53.568;10.018;2023-09-30T01:33:19;17.90;86.60
16287;DHT22;8251;53.568;10.018;2023-09-30T01:35:45;17.90;86.60
16287;DHT22;8251;53.568;10.018;2023-09-30T01:38:13;18.00;86.50
16287;DHT22;8251;53.568;10.018;2023-09-30T01:40:41;17.90;86.40
16287;DHT22;8251;53.568;10.018;2023-09-30T01:43:09;17.90;86.60
16287;DHT22;8251;53.568;10.018;2023-09-30T01:45:39;17.90;86.60
16287;DHT22;8251;53.568;10.018;2023-09-30T01:48:06;17.90;86.70
16287;DHT22;8251;53.568;10.018;2023-09-30T01:50:36;17.80;86.60
16287;DHT22;8251;53.568;10.018;2023-09-30T01:53:03;17.80;86.70
16287;DHT22;8251;53.568;10.018;2023-09-30T01:55:32;17.80;86.50
16287;DHT22;8251;53.568;10.018;2023-09-30T01:58:01;17.80;86.70
16287;DHT22;8251;53.568;10.018;2023-09-30T02:00:28;17.80;86.70
16287;DHT22;8251;53.568;10.018;2023-09-30T02:02:58;17.80;86.80
16287;DHT22;8251;53.568;10.018;2023-09-30T02:05:29;17.80;86.80
16287;DHT22;8251;53.568;10.018;2023-09-30T02:07:55;17.70;86.80
16287;DHT22;8251;53.568;10.018;2023-09-30T02:10:22;17.70;86.80
16287;DHT22;8251;53.568;10.018;2023-09-30T02:12:50;17.70;86.90
16287;DHT22;8251;53.568;10.018;2023-09-30T02:15:19;17.70;86.80
16287;DHT22;8251;53.568;10.018;2023-09-30T02:17:46;17.70;86.90
16287;DHT22;8251;53.568;10.018;2023-09-30T02:20:14;17.70;86.80
16287;DHT22;8251;53.568;10.018;2023-09-30T02:22:47;17.70;86.80
16287;DHT22;8251;53.568;10.018;2023-09-30T02:25:15;17.60;86.90
16287;DHT22;8251;53.568;10.018;2023-09-30T02:27:42;17.60;87.00
16287;DHT22;8251;53.568;10.018;2023-09-30T02:30:11;17.60;87.00
16287;DHT22;8251;53.568;10.018;2023-09-30T02:32:43;17.60;87.10
16287;DHT22;8251;53.568;10.018;2023-09-30T02:35:12;17.60;87.30
16287;DHT22;8251;53.568;10.018;2023-09-30T02:37:40;17.60;87.30
16287;DHT22;8251;53.568;10.018;2023-09-30T02:40:08;17.50;87.40
16287;DHT22;8251;53.568;10.018;2023-09-30T02:42:36;17.50;87.20
16287;DHT22;8251;53.568;10.018;2023-09-30T02:45:04;17.50;87.20
16287;DHT22;8251;53.568;10.018;2023-09-30T02:47:31;17.40;87.50
16287;DHT22;8251;53.568;10.018;2023-09-30T02:49:59;17.40;88.60
16287;DHT22;8251;53.568;10.018;2023-09-30T02:52:29;17.40;88.00
16287;DHT22;8251;53.568;10.018;2023-09-30T02:54:59;17.40;88.10
16287;DHT22;8251;53.568;10.018;2023-09-30T02:57:26;17.40;88.10
16287;DHT22;8251;53.568;10.018;2023-09-30T02:59:54;17.40;88.10
16287;DHT22;8251;53.568;10.018;2023-09-30T03:02:38;17.40;88.00
16287;DHT22;8251;53.568;10.018;2023-09-30T03:05:06;17.30;88.20
16287;DHT22;8251;53.568;10.018;2023-09-30T03:07:33;17.30;88.30
16287;DHT22;8251;53.568;10.018;2023-09-30T03:10:00;17.30;88.40
16287;DHT22;8251;53.568;10.018;2023-09-30T03:12:30;17.30;88.40
16287;DHT22;8251;53.568;10.018;2023-09-30T03:14:58;17.30;88.50
16287;DHT22;8251;53.568;10.018;2023-09-30T03:17:25;17.30;88.40
16287;DHT22;8251;53.568;10.018;2023-09-30T03:19:51;17.30;88.50
16287;DHT22;8251;53.568;10.018;2023-09-30T03:22:20;17.30;88.50
16287;DHT22;8251;53.568;10.018;2023-09-30T03:24:47;17.30;88.60
16287;DHT22;8251;53.568;10.018;2023-09-30T03:27:14;17.30;88.70
16287;DHT22;8251;53.568;10.018;2023-09-30T03:29:49;17.30;88.80
16287;DHT22;8251;53.568;10.018;2023-09-30T03:32:16;17.30;88.80
16287;DHT22;8251;53.568;10.018;2023-09-30T03:34:42;17.30;88.80
16287;DHT22;8251;53.568;10.018;2023-09-30T03:37:11;17.30;88.70
16287;DHT22;8251;53.568;10.018;2023-09-30T03:39:40;17.30;88.70
16287;DHT22;8251;53.568;10.018;2023-09-30T03:42:10;17.30;88.80
16287;DHT22;8251;53.568;10.018;2023-09-30T03:44:37;17.20;88.70
16287;DHT22;8251;53.568;10.018;2023-09-30T03:47:07;17.20;88.90
16287;DHT22;8251;53.568;10.018;2023-09-30T03:49:40;17.20;88.90
16287;DHT22;8251;53.568;10.018;2023-09-30T03:52:07;17.20;88.90
16287;DHT22;8251;53.568;10.018;2023-09-30T03:54:37;17.20;88.90
16287;DHT22;8251;53.568;10.018;2023-09-30T03:57:08;17.20;88.90
16287;DHT22;8251;53.568;10.018;2023-09-30T03:59:38;17.20;89.10
16287;DHT22;8251;53.568;10.018;2023-09-30T04:02:05;17.20;89.20
16287;DHT22;8251;53.568;10.018;2023-09-30T04:04:33;17.20;89.20
16287;DHT22;8251;53.568;10.018;2023-09-30T04:07:02;17.10;89.10
16287;DHT22;8251;53.568;10.018;2023-09-30T04:09:35;17.10;89.40
16287;DHT22;8251;53.568;10.018;2023-09-30T04:12:03;17.10;89.50
16287;DHT22;8251;53.568;10.018;2023-09-30T04:14:31;17.10;89.50
16287;DHT22;8251;53.568;10.018;2023-09-30T04:17:01;17.10;89.30
16287;DHT22;8251;53.568;10.018;2023-09-30T04:19:27;17.10;89.10
16287;DHT22;8251;53.568;10.018;2023-09-30T04:21:59;17.10;89.30
16287;DHT22;8251;53.568;10.018;2023-09-30T04:24:26;17.10;89.40
16287;DHT22;8251;53.568;10.018;2023-09-30T04:26:54;17.10;89.40
16287;DHT22;8251;53.568;10.018;2023-09-30T04:29:28;17.10;89.40
16287;DHT22;8251;53.568;10.018;2023-09-30T04:31:57;17.10;89.30
16287;DHT22;8251;53.568;10.018;2023-09-30T04:34:24;17.10;89.30
16287;DHT22;8251;53.568;10.018;2023-09-30T04:36:53;17.10;89.30
16287;DHT22;8251;53.568;10.018;2023-09-30T04:39:20;17.10;89.20
16287;DHT22;8251;53.568;10.018;2023-09-30T04:41:47;17.10;89.30
16287;DHT22;8251;53.568;10.018;2023-09-30T04:44:14;17.10;89.40
16287;DHT22;8251;53.568;10.018;2023-09-30T04:46:43;17.00;89.50
16287;DHT22;8251;53.568;10.018;2023-09-30T04:49:14;17.00;89.50
16287;DHT22;8251;53.568;10.018;2023-09-30T04:51:43;17.00;89.50
16287;DHT22;8251;53.568;10.018;2023-09-30T04:54:10;17.00;89.60
16287;DHT22;8251;53.568;10.018;2023-09-30T04:56:36;17.00;89.70
16287;DHT22;8251;53.568;10.018;2023-09-30T04:59:04;17.10;89.60
16287;DHT22;8251;53.568;10.018;2023-09-30T05:01:31;17.10;89.50
16287;DHT22;8251;53.568;10.018;2023-09-30T05:03:58;17.10;90.10
16287;DHT22;8251;53.568;10.018;2023-09-30T05:06:26;17.00;89.50
16287;DHT22;8251;53.568;10.018;2023-09-30T05:08:53;17.10;89.50
16287;DHT22;8251;53.568;10.018;2023-09-30T05:11:21;17.10;89.50
16287;DHT22;8251;53.568;10.018;2023-09-30T05:13:47;17.10;89.30
16287;DHT22;8251;53.568;10.018;2023-09-30T05:16:17;17.10;89.30
16287;DHT22;8251;53.568;10.018;2023-09-30T05:18:44;17.10;89.40
16287;DHT22;8251;53.568;10.018;2023-09-30T05:21:11;17.10;89.30
16287;DHT22;8251;53.568;10.018;2023-09-30T05:23:39;17.10;89.30
16287;DHT22;8251;53.568;10.018;2023-09-30T05:26:07;17.10;89.30
16287;DHT22;8251;53.568;10.018;2023-09-30T05:28:33;17.10;89.20
16287;DHT22;8251;53.568;10.018;2023-09-30T05:31:08;17.10;89.10
16287;DHT22;8251;53.568;10.018;2023-09-30T05:33:35;17.10;89.10
16287;DHT22;8251;53.568;10.018;2023-09-30T05:36:03;17.10;89.00
16287;DHT22;8251;53.568;10.018;2023-09-30T05:38:30;17.10;89.20
16287;DHT22;8251;53.568;10.018;2023-09-30T05:40:59;17.10;89.40
16287;DHT22;8251;53.568;10.018;2023-09-30T05:43:26;17.10;89.30
16287;DHT22;8251;53.568;10.018;2023-09-30T05:45:53;17.20;90.00
16287;DHT22;8251;53.568;10.018;2023-09-30T05:48:21;17.10;89.30
16287;DHT22;8251;53.568;10.018;2023-09-30T05:50:48;17.20;89.40
16287;DHT22;8251;53.568;10.018;2023-09-30T05:53:15;17.20;89.30
16287;DHT22;8251;53.568;10.018;2023-09-30T05:55:42;17.20;89.50
16287;DHT22;8251;53.568;10.018;2023-09-30T05:58:13;17.20;89.20
16287;DHT22;8251;53.568;10.018;2023-09-30T06:00:42;17.20;89.40
16287;DHT22;8251;53.568;10.018;2023-09-30T06:03:09;17.20;89.30
16287;DHT22;8251;53.568;10.018;2023-09-30T06:05:40;17.20;89.30
16287;DHT22;8251;53.568;10.018;2023-09-30T06:08:08;17.20;89.30
16287;DHT22;8251;53.568;10.018;2023-09-30T06:10:40;17.20;89.50
16287;DHT22;8251;53.568;10.018;2023-09-30T06:13:08;17.20;89.60
16287;DHT22;8251;53.568;10.018;2023-09-30T06:15:47;17.20;89.30
16287;DHT22;8251;53.568;10.018;2023-09-30T06:18:15;17.20;89.30
16287;DHT22;8251;53.568;10.018;2023-09-30T06:20:43;17.20;89.50
16287;DHT22;8251;53.568;10.018;2023-09-30T06:23:10;17.20;89.30
16287;DHT22;8251;53.568;10.018;2023-09-30T06:25:37;17.20;89.30
16287;DHT22;8251;53.568;10.018;2023-09-30T06:28:05;17.20;89.40
16287;DHT22;8251;53.568;10.018;2023-09-30T06:30:33;17.20;89.60
16287;DHT22;8251;53.568;10.018;2023-09-30T06:33:04;17.20;89.50
16287;DHT22;8251;53.568;10.018;2023-09-30T06:35:32;17.20;89.50
16287;DHT22;8251;53.568;10.018;2023-09-30T06:38:03;17.30;89.50
16287;DHT22;8251;53.568;10.018;2023-09-30T06:40:32;17.30;89.80
16287;DHT22;8251;53.568;10.018;2023-09-30T06:42:59;17.30;89.50
16287;DHT22;8251;53.568;10.018;2023-09-30T06:45:26;17.30;89.30
16287;DHT22;8251;53.568;10.018;2023-09-30T06:47:53;17.30;89.20
16287;DHT22;8251;53.568;10.018;2023-09-30T06:50:22;17.30;89.30
16287;DHT22;8251;53.568;10.018;2023-09-30T06:52:49;17.40;89.20
16287;DHT22;8251;53.568;10.018;2023-09-30T06:55:19;17.40;89.00
16287;DHT22;8251;53.568;10.018;2023-09-30T06:57:49;17.40;88.80
16287;DHT22;8251;53.568;10.018;2023-09-30T07:00:16;17.40;88.90
16287;DHT22;8251;53.568;10.018;2023-09-30T07:02:43;17.50;88.80
16287;DHT22;8251;53.568;10.018;2023-09-30T07:05:14;17.70;88.30
16287;DHT22;8251;53.568;10.018;2023-09-30T07:07:43;17.90;88.00
16287;DHT22;8251;53.568;10.018;2023-09-30T07:10:10;18.10;87.40
16287;DHT22;8251;53.568;10.018;2023-09-30T07:12:40;18.10;86.90
16287;DHT22;8251;53.568;10.018;2023-09-30T07:15:10;18.30;87.00
16287;DHT22;8251;53.568;10.018;2023-09-30T07:17:40;18.60;86.40
16287;DHT22;8251;53.568;10.018;2023-09-30T07:20:09;18.70;85.20
16287;DHT22;8251;53.568;10.018;2023-09-30T07:22:37;18.60;84.60
16287;DHT22;8251;53.568;10.018;2023-09-30T07:25:06;18.60;84.50
16287;DHT22;8251;53.568;10.018;2023-09-30T07:27:33;18.60;84.60
16287;DHT22;8251;53.568;10.018;2023-09-30T07:30:00;18.60;84.60
16287;DHT22;8251;53.568;10.018;2023-09-30T07:32:28;18.60;84.20
16287;DHT22;8251;53.568;10.018;2023-09-30T07:34:55;18.70;84.40
16287;DHT22;8251;53.568;10.018;2023-09-30T07:37:22;18.80;84.50
16287;DHT22;8251;53.568;10.018;2023-09-30T07:39:49;18.90;84.10
16287;DHT22;8251;53.568;10.018;2023-09-30T07:42:17;19.00;83.40
16287;DHT22;8251;53.568;10.018;2023-09-30T07:44:44;19.00;83.20
16287;DHT22;8251;53.568;10.018;2023-09-30T07:47:11;19.00;83.30
16287;DHT22;8251;53.568;10.018;2023-09-30T07:49:39;19.00;83.50
16287;DHT22;8251;53.568;10.018;2023-09-30T07:52:07;19.00;83.50
16287;DHT22;8251;53.568;10.018;2023-09-30T07:54:37;19.00;83.30
16287;DHT22;8251;53.568;10.018;2023-09-30T07:57:05;19.10;83.30
16287;DHT22;8251;53.568;10.018;2023-09-30T07:59:34;19.10;83.10
16287;DHT22;8251;53.568;10.018;2023-09-30T08:02:01;19.20;82.90
16287;DHT22;8251;53.568;10.018;2023-09-30T08:04:30;19.20;82.80
16287;DHT22;8251;53.568;10.018;2023-09-30T08:06:57;19.20;82.60
16287;DHT22;8251;53.568;10.018;2023-09-30T08:09:24;19.20;82.60
16287;DHT22;8251;53.568;10.018;2023-09-30T08:11:59;19.30;82.60
16287;DHT22;8251;53.568;10.018;2023-09-30T08:14:26;19.30;82.40
16287;DHT22;8251;53.568;10.018;2023-09-30T08:16:54;19.40;82.10
16287;DHT22;8251;53.568;10.018;2023-09-30T08:19:21;19.50;82.20
16287;DHT22;8251;53.568;10.018;2023-09-30T08:21:48;19.70;82.10
16287;DHT22;8251;53.568;10.018;2023-09-30T08:24:15;20.00;81.60
16287;DHT22;8251;53.568;10.018;2023-09-30T08:26:43;20.50;80.20
16287;DHT22;8251;53.568;10.018;2023-09-30T08:29:10;21.10;78.30
16287;DHT22;8251;53.568;10.018;2023-09-30T08:31:37;21.70;76.30
16287;DHT22;8251;53.568;10.018;2023-09-30T08:34:06;22.10;74.30
16287;DHT22;8251;53.568;10.018;2023-09-30T08:36:33;22.60;72.20
16287;DHT22;8251;53.568;10.018;2023-09-30T08:39:00;23.00;70.90
16287;DHT22;8251;53.568;10.018;2023-09-30T08:41:32;23.20;69.80
16287;DHT22;8251;53.568;10.018;2023-09-30T08:45:27;23.40;69.10
16287;DHT22;8251;53.568;10.018;2023-09-30T08:47:03;23.50;68.20
16287;DHT22;8251;53.568;10.018;2023-09-30T08:49:41;23.60;67.90
16287;DHT22;8251;53.568;10.018;2023-09-30T08:52:10;23.70;67.30
16287;DHT22;8251;53.568;10.018;2023-09-30T08:54:37;23.60;66.70
16287;DHT22;8251;53.568;10.018;2023-09-30T08:57:04;23.40;67.20
16287;DHT22;8251;53.568;10.018;2023-09-30T08:59:31;23.10;67.80
16287;DHT22;8251;53.568;10.018;2023-09-30T09:02:09;22.80;68.80
16287;DHT22;8251;53.568;10.018;2023-09-30T09:04:41;22.60;69.60
16287;DHT22;8251;53.568;10.018;2023-09-30T09:07:09;22.40;70.60
16287;DHT22;8251;53.568;10.018;2023-09-30T09:09:36;22.10;71.20
16287;DHT22;8251;53.568;10.018;2023-09-30T09:12:03;22.10;71.70
16287;DHT22;8251;53.568;10.018;2023-09-30T09:14:38;21.90;71.80
16287;DHT22;8251;53.568;10.018;2023-09-30T09:17:10;21.80;72.40
16287;DHT22;8251;53.568;10.018;2023-09-30T09:19:41;21.70;72.90
16287;DHT22;8251;53.568;10.018;2023-09-30T09:22:08;21.50;73.10
16287;DHT22;8251;53.568;10.018;2023-09-30T09:24:36;21.40;73.20
16287;DHT22;8251;53.568;10.018;2023-09-30T09:27:05;21.40;73.80
16287;DHT22;8251;53.568;10.018;2023-09-30T09:29:32;21.40;73.90
16287;DHT22;8251;53.568;10.018;2023-09-30T09:32:09;21.40;74.20
16287;DHT22;8251;53.568;10.018;2023-09-30T09:34:37;21.40;74.50
16287;DHT22;8251;53.568;10.018;2023-09-30T09:37:19;21.50;74.30
16287;DHT22;8251;53.568;10.018;2023-09-30T09:39:52;21.60;74.20
16287;DHT22;8251;53.568;10.018;2023-09-30T09:42:31;21.70;74.40
16287;DHT22;8251;53.568;10.018;2023-09-30T09:45:01;21.80;74.30
16287;DHT22;8251;53.568;10.018;2023-09-30T09:47:30;21.80;73.90
16287;DHT22;8251;53.568;10.018;2023-09-30T09:50:03;21.80;73.30
16287;DHT22;8251;53.568;10.018;2023-09-30T09:52:36;21.90;72.60
16287;DHT22;8251;53.568;10.018;2023-09-30T09:58:00;21.90;72.40
16287;DHT22;8251;53.568;10.018;2023-09-30T10:00:31;21.80;72.90
16287;DHT22;8251;53.568;10.018;2023-09-30T10:02:59;21.80;73.40
16287;DHT22;8251;53.568;10.018;2023-09-30T10:05:29;21.90;73.70
16287;DHT22;8251;53.568;10.018;2023-09-30T10:08:01;22.00;73.30
16287;DHT22;8251;53.568;10.018;2023-09-30T10:10:32;22.00;72.70
16287;DHT22;8251;53.568;10.018;2023-09-30T10:13:04;22.00;72.40
16287;DHT22;8251;53.568;10.018;2023-09-30T10:15:38;22.10;72.50
16287;DHT22;8251;53.568;10.018;2023-09-30T10:18:07;22.20;72.10
16287;DHT22;8251;53.568;10.018;2023-09-30T10:20:36;22.20;71.60
16287;DHT22;8251;53.568;10.018;2023-09-30T10:23:32;22.20;71.60
16287;DHT22;8251;53.568;10.018;2023-09-30T10:26:18;22.20;70.80
16287;DHT22;8251;53.568;10.018;2023-09-30T10:28:46;22.10;71.20
16287;DHT22;8251;53.568;10.018;2023-09-30T10:31:16;22.10;71.00
16287;DHT22;8251;53.568;10.018;2023-09-30T10:34:21;22.00;70.90
16287;DHT22;8251;53.568;10.018;2023-09-30T10:36:49;22.00;70.50
16287;DHT22;8251;53.568;10.018;2023-09-30T10:39:53;22.00;71.10
16287;DHT22;8251;53.568;10.018;2023-09-30T10:42:46;22.00;71.20
16287;DHT22;8251;53.568;10.018;2023-09-30T10:45:47;22.00;71.50
16287;DHT22;8251;53.568;10.018;2023-09-30T10:48:34;22.00;71.60
16287;DHT22;8251;53.568;10.018;2023-09-30T10:51:10;22.00;71.70
16287;DHT22;8251;53.568;10.018;2023-09-30T10:53:42;22.10;71.40
16287;DHT22;8251;53.568;10.018;2023-09-30T10:56:11;22.00;69.80
16287;DHT22;8251;53.568;10.018;2023-09-30T10:58:42;21.90;69.20
16287;DHT22;8251;53.568;10.018;2023-09-30T11:01:09;21.80;69.70
16287;DHT22;8251;53.568;10.018;2023-09-30T11:03:36;21.80;70.00
16287;DHT22;8251;53.568;10.018;2023-09-30T11:06:03;21.80;70.40
16287;DHT22;8251;53.568;10.018;2023-09-30T11:08:30;21.80;70.40
16287;DHT22;8251;53.568;10.018;2023-09-30T11:10:58;21.90;70.60
16287;DHT22;8251;53.568;10.018;2023-09-30T11:13:32;21.90;69.90
16287;DHT22;8251;53.568;10.018;2023-09-30T11:16:01;21.90;69.70
16287;DHT22;8251;53.568;10.018;2023-09-30T11:18:29;21.90;69.90
16287;DHT22;8251;53.568;10.018;2023-09-30T11:21:08;21.90;69.30
16287;DHT22;8251;53.568;10.018;2023-09-30T11:23:36;22.00;69.40
16287;DHT22;8251;53.568;10.018;2023-09-30T11:26:04;22.00;68.30
16287;DHT22;8251;53.568;10.018;2023-09-30T11:28:42;22.00;68.80
16287;DHT22;8251;53.568;10.018;2023-09-30T11:31:10;21.90;69.30
16287;DHT22;8251;53.568;10.018;2023-09-30T11:33:48;22.00;69.70
16287;DHT22;8251;53.568;10.018;2023-09-30T11:36:20;22.00;68.30
16287;DHT22;8251;53.568;10.018;2023-09-30T11:38:49;22.10;67.50
16287;DHT22;8251;53.568;10.018;2023-09-30T11:41:17;22.10;67.30
16287;DHT22;8251;53.568;10.018;2023-09-30T11:44:05;22.20;67.70
16287;DHT22;8251;53.568;10.018;2023-09-30T11:46:49;22.30;67.70
16287;DHT22;8251;53.568;10.018;2023-09-30T11:49:31;22.40;66.90
16287;DHT22;8251;53.568;10.018;2023-09-30T11:51:59;22.50;66.70
16287;DHT22;8251;53.568;10.018;2023-09-30T11:54:31;22.60;66.10
16287;DHT22;8251;53.568;10.018;2023-09-30T12:00:31;23.00;65.50
16287;DHT22;8251;53.568;10.018;2023-09-30T12:03:00;23.20;64.90
16287;DHT22;8251;53.568;10.018;2023-09-30T12:05:30;23.50;64.80
16287;DHT22;8251;53.568;10.018;2023-09-30T12:07:58;23.70;63.90
16287;DHT22;8251;53.568;10.018;2023-09-30T12:10:26;23.90;63.20
16287;DHT22;8251;53.568;10.018;2023-09-30T12:12:54;23.90;62.20
16287;DHT22;8251;53.568;10.018;2023-09-30T12:15:21;24.00;61.80
16287;DHT22;8251;53.568;10.018;2023-09-30T12:17:50;24.10;61.30
16287;DHT22;8251;53.568;10.018;2023-09-30T12:20:17;24.30;60.00
16287;DHT22;8251;53.568;10.018;2023-09-30T12:22:44;24.50;60.10
16287;DHT22;8251;53.568;10.018;2023-09-30T12:25:11;24.50;59.90
16287;DHT22;8251;53.568;10.018;2023-09-30T12:27:38;24.60;60.20
16287;DHT22;8251;53.568;10.018;2023-09-30T12:30:09;24.60;60.30
16287;DHT22;8251;53.568;10.018;2023-09-30T12:32:39;24.60;61.00
16287;DHT22;8251;53.568;10.018;2023-09-30T12:35:12;24.60;60.20
16287;DHT22;8251;53.568;10.018;2023-09-30T12:37:40;24.50;59.00
16287;DHT22;8251;53.568;10.018;2023-09-30T12:40:09;24.50;59.40
16287;DHT22;8251;53.568;10.018;2023-09-30T12:42:39;24.40;58.30
16287;DHT22;8251;53.568;10.018;2023-09-30T12:45:08;24.40;58.60
16287;DHT22;8251;53.568;10.018;2023-09-30T12:47:35;24.30;59.20
16287;DHT22;8251;53.568;10.018;2023-09-30T12:50:02;24.20;59.00
16287;DHT22;8251;53.568;10.018;2023-09-30T12:52:30;24.10;58.90
16287;DHT22;8251;53.568;10.018;2023-09-30T12:55:05;24.00;59.40
16287;DHT22;8251;53.568;10.018;2023-09-30T12:57:34;24.00;59.80
16287;DHT22;8251;53.568;10.018;2023-09-30T13:00:02;23.90;59.80
16287;DHT22;8251;53.568;10.018;2023-09-30T13:02:29;23.80;59.40
16287;DHT22;8251;53.568;10.018;2023-09-30T13:04:59;23.80;60.00
16287;DHT22;8251;53.568;10.018;2023-09-30T13:07:37;23.70;60.50
16287;DHT22;8251;53.568;10.018;2023-09-30T13:10:19;23.70;59.90
16287;DHT22;8251;53.568;10.018;2023-09-30T13:12:46;23.60;60.30
16287;DHT22;8251;53.568;10.018;2023-09-30T13:15:19;23.50;60.60
16287;DHT22;8251;53.568;10.018;2023-09-30T13:21:09;23.30;61.70
16287;DHT22;8251;53.568;10.018;2023-09-30T13:23:40;23.10;62.60
16287;DHT22;8251;53.568;10.018;2023-09-30T13:26:11;23.00;62.20
16287;DHT22;8251;53.568;10.018;2023-09-30T13:37:51;22.70;62.30
16287;DHT22;8251;53.568;10.018;2023-09-30T13:40:24;22.60;61.80
16287;DHT22;8251;53.568;10.018;2023-09-30T13:42:52;22.60;61.80
16287;DHT22;8251;53.568;10.018;2023-09-30T13:45:18;22.60;62.20
16287;DHT22;8251;53.568;10.018;2023-09-30T13:47:45;22.50;62.60
16287;DHT22;8251;53.568;10.018;2023-09-30T13:50:14;22.60;63.10
16287;DHT22;8251;53.568;10.018;2023-09-30T13:52:43;22.50;62.40
16287;DHT22;8251;53.568;10.018;2023-09-30T13:55:12;22.50;63.90
16287;DHT22;8251;53.568;10.018;2023-09-30T13:57:46;22.40;64.20
16287;DHT22;8251;53.568;10.018;2023-09-30T14:00:14;22.40;63.40
16287;DHT22;8251;53.568;10.018;2023-09-30T14:02:44;22.40;63.30
16287;DHT22;8251;53.568;10.018;2023-09-30T14:05:14;22.30;63.60
16287;DHT22;8251;53.568;10.018;2023-09-30T14:07:42;22.30;63.30
16287;DHT22;8251;53.568;10.018;2023-09-30T14:10:10;22.30;63.70
16287;DHT22;8251;53.568;10.018;2023-09-30T14:12:38;22.30;64.60
16287;DHT22;8251;53.568;10.018;2023-09-30T14:15:10;22.20;64.40
16287;DHT22;8251;53.568;10.018;2023-09-30T14:17:37;22.20;64.40
16287;DHT22;8251;53.568;10.018;2023-09-30T14:20:05;22.10;64.70
16287;DHT22;8251;53.568;10.018;2023-09-30T14:22:34;22.10;65.00
16287;DHT22;8251;53.568;10.018;2023-09-30T14:25:01;22.00;65.00
16287;DHT22;8251;53.568;10.018;2023-09-30T14:27:29;22.00;65.20
16287;DHT22;8251;53.568;10.018;2023-09-30T14:29:58;22.10;65.10
16287;DHT22;8251;53.568;10.018;2023-09-30T14:32:27;21.90;65.30
16287;DHT22;8251;53.568;10.018;2023-09-30T14:34:53;21.80;65.40
16287;DHT22;8251;53.568;10.018;2023-09-30T14:37:22;21.70;65.70
16287;DHT22;8251;53.568;10.018;2023-09-30T14:39:50;21.70;65.60
16287;DHT22;8251;53.568;10.018;2023-09-30T14:42:17;21.70;65.60
16287;DHT22;8251;53.568;10.018;2023-09-30T14:44:45;21.60;65.50
16287;DHT22;8251;53.568;10.018;2023-09-30T14:47:12;21.50;66.10
16287;DHT22;8251;53.568;10.018;2023-09-30T14:49:40;21.50;66.30
16287;DHT22;8251;53.568;10.018;2023-09-30T14:52:08;21.50;66.60
16287;DHT22;8251;53.568;10.018;2023-09-30T14:54:35;21.40;66.60
16287;DHT22;8251;53.568;10.018;2023-09-30T14:57:04;21.50;66.80
16287;DHT22;8251;53.568;10.018;2023-09-30T14:59:32;21.40;67.00
16287;DHT22;8251;53.568;10.018;2023-09-30T15:02:01;21.40;67.40
16287;DHT22;8251;53.568;10.018;2023-09-30T15:04:27;21.40;67.30
16287;DHT22;8251;53.568;10.018;2023-09-30T15:06:57;21.50;67.30
16287;DHT22;8251;53.568;10.018;2023-09-30T15:09:25;21.50;67.60
16287;DHT22;8251;53.568;10.018;2023-09-30T15:11:51;21.40;67.50
16287;DHT22;8251;53.568;10.018;2023-09-30T15:14:19;21.40;67.00
16287;DHT22;8251;53.568;10.018;2023-09-30T15:16:49;21.50;67.40
16287;DHT22;8251;53.568;10.018;2023-09-30T15:19:16;21.40;67.40
16287;DHT22;8251;53.568;10.018;2023-09-30T15:21:43;21.50;67.00
16287;DHT22;8251;53.568;10.018;2023-09-30T15:24:12;21.40;67.00
16287;DHT22;8251;53.568;10.018;2023-09-30T15:26:40;21.40;67.60
16287;DHT22;8251;53.568;10.018;2023-09-30T15:29:07;21.40;67.90
16287;DHT22;8251;53.568;10.018;2023-09-30T15:31:34;21.30;68.10
16287;DHT22;8251;53.568;10.018;2023-09-30T15:34:01;21.30;68.00
16287;DHT22;8251;53.568;10.018;2023-09-30T15:36:28;21.30;68.00
16287;DHT22;8251;53.568;10.018;2023-09-30T15:38:59;21.40;68.20
16287;DHT22;8251;53.568;10.018;2023-09-30T15:41:28;21.20;68.20
16287;DHT22;8251;53.568;10.018;2023-09-30T15:43:59;21.20;68.60
16287;DHT22;8251;53.568;10.018;2023-09-30T15:46:27;21.20;68.90
16287;DHT22;8251;53.568;10.018;2023-09-30T15:48:54;21.20;69.40
16287;DHT22;8251;53.568;10.018;2023-09-30T15:51:23;21.30;69.80
16287;DHT22;8251;53.568;10.018;2023-09-30T15:53:50;21.10;69.60
16287;DHT22;8251;53.568;10.018;2023-09-30T15:56:16;21.10;70.30
16287;DHT22;8251;53.568;10.018;2023-09-30T15:58:44;21.00;70.30
16287;DHT22;8251;53.568;10.018;2023-09-30T16:01:12;21.00;70.10
16287;DHT22;8251;53.568;10.018;2023-09-30T16:03:41;21.00;70.40